createdAt,value
2023-01-27T00:01:36.080Z,6.19
2023-01-27T00:03:41.202Z,6.19
2023-01-27T00:05:49.154Z,6.21
2023-01-27T00:07:54.019Z,6.27
2023-01-27T00:09:58.833Z,6.31
2023-01-27T00:12:16.059Z,6.32
2023-01-27T00:14:20.813Z,6.29
2023-01-27T00:16:25.679Z,6.31
2023-01-27T00:18:30.761Z,6.33
2023-01-27T00:20:48.426Z,6.36
2023-01-27T00:23:08.269Z,6.36
2023-01-27T00:25:13.243Z,6.37
2023-01-27T00:27:18.044Z,6.38
2023-01-27T00:29:23.043Z,6.40
2023-01-27T00:31:40.471Z,6.40
2023-01-27T00:33:46.030Z,6.41
2023-01-27T00:35:50.855Z,6.41
2023-01-27T00:37:58.324Z,6.43
2023-01-27T00:40:03.184Z,6.42
2023-01-27T00:42:10.834Z,6.38
2023-01-27T00:44:15.752Z,6.40
2023-01-27T00:46:19.218Z,6.38
2023-01-27T00:48:24.055Z,6.35
2023-01-27T00:50:28.960Z,6.35
2023-01-27T00:52:34.221Z,6.38
2023-01-27T00:54:42.536Z,6.37
2023-01-27T00:56:47.804Z,6.38
2023-01-27T00:58:52.648Z,6.40
2023-01-27T01:00:59.525Z,6.41
2023-01-27T01:03:04.464Z,6.41
2023-01-27T01:05:09.867Z,6.42
2023-01-27T01:07:14.764Z,6.45
2023-01-27T01:09:19.607Z,6.43
2023-01-27T01:11:29.083Z,6.43
2023-01-27T01:13:34.514Z,6.45
2023-01-27T01:15:39.834Z,6.44
2023-01-27T01:17:44.664Z,6.42
2023-01-27T01:19:49.571Z,6.41
2023-01-27T01:21:54.515Z,6.42
2023-01-27T01:23:59.422Z,6.42
2023-01-27T01:26:04.318Z,6.44
2023-01-27T01:28:12.253Z,6.45
2023-01-27T01:30:17.373Z,6.46
2023-01-27T01:32:22.244Z,6.47
2023-01-27T01:34:27.245Z,6.47
2023-01-27T01:36:32.125Z,6.49
2023-01-27T01:38:36.984Z,6.49
2023-01-27T01:40:45.322Z,6.49
2023-01-27T01:43:00.271Z,6.49
2023-01-27T01:45:44.305Z,6.49
2023-01-27T01:47:49.229Z,6.46
2023-01-27T01:49:54.035Z,6.47
2023-01-27T01:52:02.900Z,6.48
2023-01-27T01:54:11.129Z,6.49
2023-01-27T01:56:23.895Z,6.49
2023-01-27T01:58:30.454Z,6.50
2023-01-27T02:00:38.749Z,6.49
2023-01-27T02:02:44.569Z,6.54
2023-01-27T02:04:54.993Z,6.52
2023-01-27T02:07:05.419Z,6.53
2023-01-27T02:09:10.921Z,6.54
2023-01-27T02:11:15.861Z,6.53
2023-01-27T02:13:20.739Z,6.51
2023-01-27T02:15:25.615Z,6.51
2023-01-27T02:17:34.042Z,6.51
2023-01-27T02:19:48.542Z,6.51
2023-01-27T02:21:55.694Z,6.52
2023-01-27T02:24:06.604Z,6.51
2023-01-27T02:26:18.630Z,6.52
2023-01-27T02:28:23.659Z,6.51
2023-01-27T02:30:28.821Z,6.48
2023-01-27T02:32:34.871Z,6.53
2023-01-27T02:34:40.995Z,6.51
2023-01-27T02:36:50.626Z,6.51
2023-01-27T02:38:59.628Z,6.51
2023-01-27T02:41:10.954Z,6.51
2023-01-27T02:43:19.468Z,6.50
2023-01-27T02:45:24.831Z,6.50
2023-01-27T02:47:30.600Z,6.50
2023-01-27T02:49:35.652Z,6.49
2023-01-27T02:51:42.164Z,6.51
2023-01-27T02:53:47.260Z,6.50
2023-01-27T02:55:52.117Z,6.50
2023-01-27T02:57:57.065Z,6.50
2023-01-27T03:00:31.580Z,6.46
2023-01-27T03:02:36.491Z,6.45
2023-01-27T03:04:42.175Z,6.46
2023-01-27T03:06:47.077Z,6.43
2023-01-27T03:08:52.017Z,6.47
2023-01-27T03:10:58.501Z,6.48
2023-01-27T03:13:03.484Z,6.48
2023-01-27T03:15:22.361Z,6.45
2023-01-27T03:17:42.650Z,6.42
2023-01-27T03:19:53.416Z,6.41
2023-01-27T03:22:02.012Z,6.42
2023-01-27T03:24:09.590Z,6.41
2023-01-27T03:26:15.036Z,6.41
2023-01-27T03:28:23.153Z,6.41
2023-01-27T03:30:41.925Z,6.41
2023-01-27T03:32:59.462Z,6.41
2023-01-27T03:35:23.327Z,6.42
2023-01-27T03:37:41.258Z,6.43
2023-01-27T03:39:58.500Z,6.44
2023-01-27T03:42:15.782Z,6.42
2023-01-27T03:44:33.388Z,6.40
2023-01-27T03:46:38.336Z,6.38
2023-01-27T03:48:45.796Z,6.38
2023-01-27T03:50:53.242Z,6.38
2023-01-27T03:53:05.867Z,6.37
2023-01-27T03:55:12.368Z,6.34
2023-01-27T03:57:17.996Z,6.35
2023-01-27T03:59:23.110Z,6.35
2023-01-27T04:01:28.080Z,6.35
2023-01-27T04:03:47.750Z,6.35
2023-01-27T04:06:07.707Z,6.33
2023-01-27T04:08:12.640Z,6.33
2023-01-27T04:10:17.570Z,6.31
2023-01-27T04:12:20.350Z,6.29
2023-01-27T04:14:27.267Z,6.29
2023-01-27T04:16:32.318Z,6.29
2023-01-27T04:18:38.127Z,6.33
2023-01-27T04:20:43.034Z,6.32
2023-01-27T04:22:50.749Z,6.33
2023-01-27T04:24:55.576Z,6.36
2023-01-27T04:27:03.208Z,6.37
2023-01-27T04:29:08.153Z,6.35
2023-01-27T04:31:13.106Z,6.36
2023-01-27T04:33:18.979Z,6.36
2023-01-27T04:35:27.852Z,6.32
2023-01-27T04:37:38.968Z,6.26
2023-01-27T04:39:47.459Z,6.26
2023-01-27T04:41:52.637Z,6.26
2023-01-27T04:43:57.413Z,6.23
2023-01-27T04:46:02.310Z,6.25
2023-01-27T04:48:07.850Z,6.26
2023-01-27T04:50:14.477Z,6.23
2023-01-27T04:52:19.272Z,6.23
2023-01-27T04:54:26.605Z,6.21
2023-01-27T04:56:36.042Z,6.25
2023-01-27T04:58:42.507Z,6.25
2023-01-27T05:00:48.021Z,6.25
2023-01-27T05:02:53.030Z,6.24
2023-01-27T05:04:58.187Z,6.28
2023-01-27T05:07:03.179Z,6.27
2023-01-27T05:09:07.945Z,6.32
2023-01-27T05:11:13.092Z,6.31
2023-01-27T05:13:20.508Z,6.26
2023-01-27T05:15:25.337Z,6.35
2023-01-27T05:17:34.157Z,6.34
2023-01-27T05:19:39.026Z,6.35
2023-01-27T05:21:44.574Z,6.32
2023-01-27T05:23:49.484Z,6.26
2023-01-27T05:25:54.359Z,6.25
2023-01-27T05:27:59.288Z,6.25
2023-01-27T05:30:07.761Z,6.22
2023-01-27T05:32:12.606Z,6.22
2023-01-27T05:34:17.392Z,6.25
2023-01-27T05:36:24.316Z,6.28
2023-01-27T05:38:29.137Z,6.30
2023-01-27T05:40:33.967Z,6.31
2023-01-27T05:42:38.770Z,6.29
2023-01-27T05:44:43.660Z,6.31
2023-01-27T05:46:51.045Z,6.33
2023-01-27T05:48:58.335Z,6.32
2023-01-27T05:51:03.215Z,6.31
2023-01-27T05:53:08.312Z,6.30
2023-01-27T05:55:13.404Z,6.31
2023-01-27T05:57:18.396Z,6.29
2023-01-27T05:59:23.241Z,6.29
2023-01-27T06:01:30.197Z,6.26
2023-01-27T06:03:38.148Z,6.28
2023-01-27T06:05:51.670Z,6.31
2023-01-27T06:07:57.699Z,6.28
2023-01-27T06:10:02.551Z,6.28
2023-01-27T06:12:07.667Z,6.28
2023-01-27T06:14:12.579Z,6.29
2023-01-27T06:16:20.171Z,6.29
2023-01-27T06:18:26.298Z,6.31
2023-01-27T06:20:33.709Z,6.30
2023-01-27T06:22:38.604Z,6.30
2023-01-27T06:24:43.363Z,6.30
2023-01-27T06:26:48.277Z,6.32
2023-01-27T06:28:53.068Z,6.29
2023-01-27T06:30:58.002Z,6.29
2023-01-27T06:33:02.783Z,6.28
2023-01-27T06:35:08.847Z,6.26
2023-01-27T06:37:16.278Z,6.26
2023-01-27T06:39:21.279Z,6.27
2023-01-27T06:41:26.117Z,6.28
2023-01-27T06:43:31.289Z,6.29
2023-01-27T06:45:36.086Z,6.31
2023-01-27T06:47:41.974Z,6.31
2023-01-27T06:49:46.744Z,6.33
2023-01-27T06:51:51.942Z,6.34
2023-01-27T06:53:59.591Z,6.34
2023-01-27T06:56:04.824Z,6.35
2023-01-27T06:58:10.419Z,6.35
2023-01-27T07:00:16.938Z,6.34
2023-01-27T07:02:22.064Z,6.36
2023-01-27T07:04:26.929Z,6.34
2023-01-27T07:06:31.801Z,6.38
2023-01-27T07:08:37.033Z,6.38
2023-01-27T07:10:46.908Z,6.40
2023-01-27T07:12:51.746Z,6.40
2023-01-27T07:14:57.029Z,6.40
2023-01-27T07:17:01.909Z,6.42
2023-01-27T07:19:06.827Z,6.41
2023-01-27T07:21:12.785Z,6.42
2023-01-27T07:23:17.595Z,6.42
2023-01-27T07:25:22.411Z,6.41
2023-01-27T07:27:30.203Z,6.41
2023-01-27T07:29:35.028Z,6.41
2023-01-27T07:31:39.949Z,6.41
2023-01-27T07:33:44.976Z,6.43
2023-01-27T07:35:53.727Z,6.43
2023-01-27T07:37:59.864Z,6.42
2023-01-27T07:40:04.847Z,6.44
2023-01-27T07:42:11.243Z,6.43
2023-01-27T07:44:18.875Z,6.44
2023-01-27T07:46:24.046Z,6.44
2023-01-27T07:48:29.729Z,6.45
2023-01-27T07:50:34.809Z,6.45
2023-01-27T07:52:39.802Z,6.44
2023-01-27T07:54:44.839Z,6.45
2023-01-27T07:56:49.717Z,6.47
2023-01-27T07:58:57.666Z,6.46
2023-01-27T08:01:08.537Z,6.45
2023-01-27T08:03:25.709Z,6.44
2023-01-27T08:05:31.389Z,6.49
2023-01-27T08:07:37.332Z,6.49
2023-01-27T08:09:42.374Z,6.49
2023-01-27T08:11:47.919Z,6.50
2023-01-27T08:13:52.844Z,6.50
2023-01-27T08:16:00.812Z,6.50
2023-01-27T08:18:08.230Z,6.51
2023-01-27T08:20:15.125Z,6.51
2023-01-27T08:22:23.805Z,6.54
2023-01-27T08:24:29.204Z,6.51
2023-01-27T08:26:34.127Z,6.56
2023-01-27T08:28:40.345Z,6.53
2023-01-27T08:30:45.157Z,6.58
2023-01-27T08:32:50.328Z,6.56
2023-01-27T08:34:58.407Z,6.52
2023-01-27T08:37:06.737Z,6.55
2023-01-27T08:39:12.462Z,6.57
2023-01-27T08:41:20.224Z,6.57
2023-01-27T08:43:24.998Z,6.58
2023-01-27T08:45:30.131Z,6.58
2023-01-27T08:47:35.085Z,6.58
2023-01-27T08:49:40.540Z,6.58
2023-01-27T08:51:48.573Z,6.59
2023-01-27T08:53:54.035Z,6.58
2023-01-27T08:56:01.514Z,6.59
2023-01-27T08:58:08.244Z,6.59
2023-01-27T09:00:15.968Z,6.60
2023-01-27T09:02:22.533Z,6.60
2023-01-27T09:04:29.773Z,6.61
2023-01-27T09:06:34.787Z,6.62
2023-01-27T09:08:42.785Z,6.64
2023-01-27T09:10:47.988Z,6.64
2023-01-27T09:12:53.303Z,6.62
2023-01-27T09:14:58.399Z,6.63
2023-01-27T09:17:03.631Z,6.59
2023-01-27T09:19:10.515Z,6.57
2023-01-27T09:21:15.414Z,6.59
2023-01-27T09:23:20.564Z,6.60
2023-01-27T09:25:27.973Z,6.62
2023-01-27T09:27:39.251Z,6.56
2023-01-27T09:29:44.884Z,6.61
2023-01-27T09:31:49.809Z,6.62
2023-01-27T09:33:54.623Z,6.68
2023-01-27T09:36:05.382Z,6.66
2023-01-27T09:38:11.836Z,6.67
2023-01-27T09:40:27.731Z,6.68
2023-01-27T09:43:19.541Z,6.69
2023-01-27T09:45:49.931Z,6.71
2023-01-27T09:48:15.363Z,6.75
2023-01-27T09:50:40.842Z,6.76
2023-01-27T09:53:14.302Z,6.79
2023-01-27T09:55:24.914Z,6.80
2023-01-27T09:57:44.174Z,6.80
2023-01-27T10:00:06.752Z,6.81
2023-01-27T10:02:24.648Z,6.82
2023-01-27T10:04:56.377Z,6.82
2023-01-27T10:07:24.366Z,6.80
2023-01-27T10:09:49.668Z,6.82
2023-01-27T10:12:02.690Z,6.85
2023-01-27T10:14:21.806Z,6.86
2023-01-27T10:16:40.821Z,6.87
2023-01-27T10:19:11.919Z,6.85
2023-01-27T10:21:24.330Z,6.89
2023-01-27T10:23:41.554Z,6.94
2023-01-27T10:25:57.802Z,6.92
2023-01-27T10:28:08.842Z,6.90
2023-01-27T10:30:17.787Z,6.90
2023-01-27T10:32:29.924Z,6.90
2023-01-27T10:34:38.958Z,6.89
2023-01-27T10:36:53.552Z,6.90
2023-01-27T10:39:15.553Z,6.91
2023-01-27T10:41:31.904Z,6.93
2023-01-27T10:43:49.217Z,6.96
2023-01-27T10:46:01.536Z,7.00
2023-01-27T10:48:25.423Z,7.02
2023-01-27T10:50:33.784Z,7.02
2023-01-27T10:52:42.539Z,7.04
2023-01-27T10:54:54.825Z,7.05
2023-01-27T10:57:05.384Z,7.07
2023-01-27T10:59:19.698Z,7.08
2023-01-27T11:01:32.418Z,7.10
2023-01-27T11:03:45.166Z,7.09
2023-01-27T11:05:54.456Z,7.11
2023-01-27T11:08:02.921Z,7.12
2023-01-27T11:10:25.941Z,7.13
2023-01-27T11:12:34.467Z,7.13
2023-01-27T11:14:47.658Z,7.08
2023-01-27T11:16:54.863Z,7.06
2023-01-27T11:19:08.341Z,7.03
2023-01-27T11:21:18.362Z,7.02
2023-01-27T11:23:26.768Z,7.03
2023-01-27T11:25:37.640Z,7.03
2023-01-27T11:27:58.548Z,7.04
2023-01-27T11:30:12.808Z,7.07
2023-01-27T11:32:32.735Z,7.06
2023-01-27T11:34:46.257Z,7.03
2023-01-27T11:36:51.588Z,7.05
2023-01-27T11:38:58.185Z,7.04
2023-01-27T11:41:03.258Z,7.05
2023-01-27T11:43:08.522Z,7.07
2023-01-27T11:45:18.478Z,7.08
2023-01-27T11:47:27.955Z,7.07
2023-01-27T11:49:34.817Z,7.11
2023-01-27T11:51:43.230Z,7.10
2023-01-27T11:53:51.661Z,7.11
2023-01-27T11:56:01.732Z,7.08
2023-01-27T11:58:16.861Z,7.11
2023-01-27T12:00:26.950Z,7.11
2023-01-27T12:02:38.757Z,7.12
2023-01-27T12:04:52.035Z,7.12
2023-01-27T12:07:02.587Z,7.09
2023-01-27T12:09:07.387Z,7.14
2023-01-27T12:11:26.766Z,7.19
2023-01-27T12:13:31.565Z,7.19
2023-01-27T12:15:36.617Z,7.24
2023-01-27T12:17:43.566Z,7.27
2023-01-27T12:19:49.608Z,7.30
2023-01-27T12:21:59.374Z,7.32
2023-01-27T12:24:10.609Z,7.32
2023-01-27T12:26:15.616Z,7.33
2023-01-27T12:28:27.628Z,7.31
2023-01-27T12:30:34.903Z,7.33
2023-01-27T12:32:44.213Z,7.32
2023-01-27T12:34:52.438Z,7.35
2023-01-27T12:36:58.537Z,7.36
2023-01-27T12:39:07.816Z,7.33
2023-01-27T12:41:16.435Z,7.36
2023-01-27T12:43:22.825Z,7.37
2023-01-27T12:45:31.083Z,7.39
2023-01-27T12:47:35.949Z,7.41
2023-01-27T12:49:44.750Z,7.41
2023-01-27T12:51:54.648Z,7.40
2023-01-27T12:54:23.146Z,7.39
2023-01-27T12:56:28.677Z,7.37
2023-01-27T12:58:40.894Z,7.36
2023-01-27T13:00:49.070Z,7.33
2023-01-27T13:02:55.033Z,7.33
2023-01-27T13:05:03.196Z,7.31
2023-01-27T13:07:10.498Z,7.31
2023-01-27T13:09:29.466Z,7.29
2023-01-27T13:11:40.182Z,7.30
2023-01-27T13:13:52.748Z,7.29
2023-01-27T13:16:04.543Z,7.27
2023-01-27T13:18:16.567Z,7.25
2023-01-27T13:20:25.403Z,7.27
2023-01-27T13:22:31.446Z,7.30
2023-01-27T13:24:44.203Z,7.29
2023-01-27T13:26:50.005Z,7.29
2023-01-27T13:28:58.399Z,7.27
2023-01-27T13:31:12.476Z,7.29
2023-01-27T13:33:33.334Z,7.30
2023-01-27T13:35:41.862Z,7.33
2023-01-27T13:37:51.660Z,7.35
2023-01-27T13:40:06.098Z,7.36
2023-01-27T13:42:18.984Z,7.34
2023-01-27T13:44:30.475Z,7.37
2023-01-27T13:46:40.852Z,7.38
2023-01-27T13:48:49.673Z,7.40
2023-01-27T13:51:01.233Z,7.38
2023-01-27T13:53:07.409Z,7.35
2023-01-27T13:55:17.780Z,7.35
2023-01-27T13:57:54.563Z,7.35
2023-01-27T14:00:10.140Z,7.36
2023-01-27T14:02:41.113Z,7.38
2023-01-27T14:05:05.973Z,7.39
2023-01-27T14:07:22.755Z,7.40
2023-01-27T14:09:41.293Z,7.41
2023-01-27T14:11:53.945Z,7.40
2023-01-27T14:14:29.483Z,7.35
2023-01-27T14:16:46.606Z,7.37
2023-01-27T14:18:55.724Z,7.39
2023-01-27T14:21:16.464Z,7.39
2023-01-27T14:23:36.147Z,7.40
2023-01-27T14:25:47.460Z,7.38
2023-01-27T14:28:05.220Z,7.34
2023-01-27T14:30:22.037Z,7.34
2023-01-27T14:32:33.464Z,7.33
2023-01-27T14:34:53.733Z,7.31
2023-01-27T14:37:06.045Z,7.30
2023-01-27T14:39:22.372Z,7.25
2023-01-27T14:41:34.997Z,7.24
2023-01-27T14:43:50.275Z,7.18
2023-01-27T14:46:00.666Z,7.22
2023-01-27T14:48:18.269Z,7.22
2023-01-27T14:50:32.595Z,7.21
2023-01-27T14:52:46.490Z,7.21
2023-01-27T14:55:06.558Z,7.20
2023-01-27T14:57:26.799Z,7.20
2023-01-27T14:59:43.432Z,7.22
2023-01-27T15:01:58.761Z,7.21
2023-01-27T15:04:42.896Z,7.23
2023-01-27T15:06:50.237Z,7.24
2023-01-27T15:09:03.753Z,7.25
2023-01-27T15:11:25.973Z,7.23
2023-01-27T15:13:49.443Z,7.24
2023-01-27T15:16:29.041Z,7.24
2023-01-27T15:19:08.824Z,7.24
2023-01-27T15:21:34.562Z,7.22
2023-01-27T15:24:01.398Z,7.23
2023-01-27T15:26:09.800Z,7.23
2023-01-27T15:28:17.470Z,7.26
2023-01-27T15:30:28.736Z,7.26
2023-01-27T15:32:38.895Z,7.28
2023-01-27T15:34:47.763Z,7.27
2023-01-27T15:37:05.774Z,7.25
2023-01-27T15:39:35.523Z,7.25
2023-01-27T15:41:55.244Z,7.24
2023-01-27T15:44:07.993Z,7.22
2023-01-27T15:46:30.256Z,7.24
2023-01-27T15:48:41.063Z,7.25
2023-01-27T15:50:52.140Z,7.23
2023-01-27T15:53:04.971Z,7.24
2023-01-27T15:55:25.413Z,7.23
2023-01-27T15:57:32.549Z,7.24
2023-01-27T15:59:58.872Z,7.23
2023-01-27T16:02:08.183Z,7.25
2023-01-27T16:04:19.892Z,7.26
2023-01-27T16:06:28.765Z,7.24
2023-01-27T16:08:40.545Z,7.26
2023-01-27T16:10:45.721Z,7.26
2023-01-27T16:12:52.612Z,7.24
2023-01-27T16:15:27.430Z,7.24
2023-01-27T16:17:35.471Z,7.23
2023-01-27T16:19:44.558Z,7.22
2023-01-27T16:21:57.774Z,7.22
2023-01-27T16:24:08.486Z,7.22
2023-01-27T16:26:30.642Z,7.21
2023-01-27T16:28:37.405Z,7.23
2023-01-27T16:30:49.831Z,7.25
2023-01-27T16:33:06.584Z,7.23
2023-01-27T16:35:22.072Z,7.21
2023-01-27T16:37:31.585Z,7.23
2023-01-27T16:39:46.292Z,7.24
2023-01-27T16:41:56.423Z,7.25
2023-01-27T16:44:05.207Z,7.27
2023-01-27T16:46:28.319Z,7.25
2023-01-27T16:48:39.284Z,7.26
2023-01-27T16:50:45.812Z,7.27
2023-01-27T16:52:53.555Z,7.27
2023-01-27T16:54:58.908Z,7.27
2023-01-27T16:57:06.219Z,7.25
2023-01-27T16:59:21.224Z,7.25
2023-01-27T17:01:31.237Z,7.20
2023-01-27T17:03:40.120Z,7.21
2023-01-27T17:05:46.023Z,7.20
2023-01-27T17:08:26.458Z,7.15
2023-01-27T17:10:35.520Z,7.14
2023-01-27T17:12:47.007Z,7.13
2023-01-27T17:14:51.893Z,7.11
2023-01-27T17:17:02.433Z,7.13
2023-01-27T17:19:12.847Z,7.12
2023-01-27T17:21:27.980Z,7.11
2023-01-27T17:23:37.617Z,7.14
2023-01-27T17:25:42.941Z,7.13
2023-01-27T17:27:48.496Z,7.14
2023-01-27T17:29:57.626Z,7.15
2023-01-27T17:32:02.809Z,7.15
2023-01-27T17:34:07.791Z,7.13
2023-01-27T17:36:14.985Z,7.14
2023-01-27T17:38:23.651Z,7.12
2023-01-27T17:40:31.136Z,7.10
2023-01-27T17:42:36.918Z,7.13
2023-01-27T17:44:41.951Z,7.13
2023-01-27T17:46:46.841Z,7.12
2023-01-27T17:48:56.114Z,7.12
2023-01-27T17:51:01.454Z,7.10
2023-01-27T17:53:11.460Z,7.09
2023-01-27T17:55:19.334Z,7.08
2023-01-27T17:57:32.765Z,7.09
2023-01-27T17:59:38.920Z,6.98
2023-01-27T18:01:44.117Z,7.03
2023-01-27T18:03:53.062Z,7.02
2023-01-27T18:05:59.316Z,7.04
2023-01-27T18:08:05.304Z,7.06
2023-01-27T18:10:26.682Z,7.04
2023-01-27T18:12:40.184Z,7.05
2023-01-27T18:14:45.071Z,7.04
2023-01-27T18:17:00.930Z,7.05
2023-01-27T18:19:11.187Z,7.05
2023-01-27T18:21:21.520Z,7.08
2023-01-27T18:23:30.409Z,7.09
2023-01-27T18:25:35.349Z,7.06
2023-01-27T18:27:43.322Z,7.10
2023-01-27T18:29:48.192Z,7.09
2023-01-27T18:31:56.056Z,7.03
2023-01-27T18:34:03.644Z,7.06
2023-01-27T18:36:21.549Z,7.05
2023-01-27T18:38:28.570Z,7.05
2023-01-27T18:40:35.526Z,7.05
2023-01-27T18:42:43.079Z,7.02
2023-01-27T18:44:48.566Z,7.04
2023-01-27T18:46:53.570Z,7.07
2023-01-27T18:48:59.798Z,7.07
2023-01-27T18:51:04.647Z,7.06
2023-01-27T18:53:16.456Z,7.07
2023-01-27T18:55:23.652Z,7.07
2023-01-27T18:57:28.679Z,7.05
2023-01-27T18:59:36.195Z,7.05
2023-01-27T19:01:41.303Z,7.06
2023-01-27T19:03:46.172Z,7.08
2023-01-27T19:05:52.016Z,7.08
2023-01-27T19:07:56.843Z,7.08
2023-01-27T19:10:01.759Z,7.07
2023-01-27T19:12:07.179Z,7.07
2023-01-27T19:14:12.656Z,7.08
2023-01-27T19:16:21.140Z,7.04
2023-01-27T19:18:29.367Z,7.09
2023-01-27T19:20:34.286Z,7.08
2023-01-27T19:22:39.259Z,7.09
2023-01-27T19:24:45.483Z,7.04
2023-01-27T19:26:50.381Z,7.02
2023-01-27T19:28:57.384Z,7.02
2023-01-27T19:31:03.027Z,7.02
2023-01-27T19:33:21.936Z,7.02
2023-01-27T19:35:28.686Z,7.03
2023-01-27T19:37:34.412Z,7.02
2023-01-27T19:39:39.301Z,7.03
2023-01-27T19:41:45.735Z,7.02
2023-01-27T19:43:50.577Z,7.03
2023-01-27T19:45:55.751Z,7.02
2023-01-27T19:48:01.379Z,7.02
2023-01-27T19:50:09.474Z,7.01
2023-01-27T19:52:14.495Z,7.03
2023-01-27T19:54:19.936Z,7.06
2023-01-27T19:56:26.645Z,7.06
2023-01-27T19:58:31.621Z,7.04
2023-01-27T20:00:38.529Z,7.04
2023-01-27T20:02:43.740Z,7.02
2023-01-27T20:04:48.578Z,6.99
2023-01-27T20:06:56.076Z,6.97
2023-01-27T20:09:03.641Z,6.99
2023-01-27T20:11:08.690Z,7.01
2023-01-27T20:13:16.987Z,6.98
2023-01-27T20:15:22.863Z,6.99
2023-01-27T20:17:27.721Z,6.94
2023-01-27T20:19:32.623Z,6.93
2023-01-27T20:21:37.498Z,6.94
2023-01-27T20:23:45.254Z,6.94
2023-01-27T20:25:50.207Z,6.94
2023-01-27T20:27:56.970Z,6.93
2023-01-27T20:30:01.858Z,6.92
2023-01-27T20:32:09.689Z,6.93
2023-01-27T20:34:14.560Z,6.88
2023-01-27T20:36:20.952Z,6.92
2023-01-27T20:38:25.915Z,6.92
2023-01-27T20:40:33.627Z,6.89
2023-01-27T20:42:38.932Z,6.92
2023-01-27T20:44:44.263Z,6.95
2023-01-27T20:46:49.634Z,6.92
2023-01-27T20:48:54.680Z,6.96
2023-01-27T20:51:03.262Z,6.94
2023-01-27T20:53:08.413Z,6.96
2023-01-27T20:55:13.763Z,6.92
2023-01-27T20:57:22.545Z,6.93
2023-01-27T20:59:27.589Z,6.94
2023-01-27T21:01:33.219Z,6.94
2023-01-27T21:03:39.744Z,6.93
2023-01-27T21:05:45.980Z,6.90
2023-01-27T21:07:51.066Z,6.91
2023-01-27T21:09:56.227Z,6.90
2023-01-27T21:12:01.365Z,6.87
2023-01-27T21:14:09.403Z,6.87
2023-01-27T21:16:15.780Z,6.91
2023-01-27T21:18:21.079Z,6.85
2023-01-27T21:20:26.151Z,6.90
2023-01-27T21:22:31.072Z,6.86
2023-01-27T21:24:36.963Z,6.88
2023-01-27T21:26:42.262Z,6.91
2023-01-27T21:28:50.387Z,6.91
2023-01-27T21:30:58.196Z,6.88
2023-01-27T21:33:03.502Z,6.91
2023-01-27T21:35:09.540Z,6.90
2023-01-27T21:37:14.503Z,6.90
2023-01-27T21:39:19.387Z,6.82
2023-01-27T21:41:40.045Z,6.85
2023-01-27T21:43:57.510Z,6.81
2023-01-27T21:46:05.160Z,6.78
2023-01-27T21:48:10.100Z,6.76
2023-01-27T21:50:15.312Z,6.77
2023-01-27T21:52:20.229Z,6.76
2023-01-27T21:54:25.216Z,6.76
2023-01-27T21:56:36.728Z,6.76
2023-01-27T21:58:41.832Z,6.73
2023-01-27T22:00:46.861Z,6.70
2023-01-27T22:02:59.496Z,6.77
2023-01-27T22:05:04.436Z,6.72
2023-01-27T22:07:10.182Z,6.78
2023-01-27T22:09:15.250Z,6.76
2023-01-27T22:11:20.397Z,6.76
2023-01-27T22:13:25.264Z,6.73
2023-01-27T22:15:31.386Z,6.74
2023-01-27T22:17:37.297Z,6.73
2023-01-27T22:19:45.856Z,6.74
2023-01-27T22:21:50.824Z,6.73
2023-01-27T22:23:55.907Z,6.73
2023-01-27T22:26:00.871Z,6.75
2023-01-27T22:28:05.779Z,6.76
2023-01-27T22:30:12.880Z,6.77
2023-01-27T22:32:17.904Z,6.78
2023-01-27T22:34:22.994Z,6.76
2023-01-27T22:36:30.557Z,6.77
2023-01-27T22:38:40.286Z,6.77
2023-01-27T22:40:45.249Z,6.76
2023-01-27T22:42:51.572Z,6.75
2023-01-27T22:44:56.502Z,6.73
2023-01-27T22:47:01.452Z,6.74
2023-01-27T22:49:06.675Z,6.76
2023-01-27T22:51:11.717Z,6.75
2023-01-27T22:53:19.328Z,6.75
2023-01-27T22:55:24.254Z,6.75
2023-01-27T22:57:31.501Z,6.73
2023-01-27T22:59:36.455Z,6.70
2023-01-27T23:01:41.457Z,6.73
2023-01-27T23:03:46.389Z,6.73
2023-01-27T23:05:51.595Z,6.75
2023-01-27T23:07:56.510Z,6.75
2023-01-27T23:10:04.145Z,6.74
2023-01-27T23:12:09.677Z,6.75
2023-01-27T23:14:14.884Z,6.76
2023-01-27T23:16:19.866Z,6.73
2023-01-27T23:18:24.912Z,6.72
2023-01-27T23:20:29.932Z,6.68
2023-01-27T23:22:35.328Z,6.68
2023-01-27T23:24:40.688Z,6.65
2023-01-27T23:26:48.235Z,6.66
2023-01-27T23:28:53.436Z,6.65
2023-01-27T23:30:58.563Z,6.67
2023-01-27T23:33:03.478Z,6.67
2023-01-27T23:35:09.752Z,6.67
2023-01-27T23:37:14.698Z,6.64
2023-01-27T23:39:19.923Z,6.63
2023-01-27T23:41:24.787Z,6.61
2023-01-27T23:43:32.874Z,6.58
2023-01-27T23:45:37.758Z,6.59
2023-01-27T23:47:42.778Z,6.61
2023-01-27T23:49:47.960Z,6.59
2023-01-27T23:51:53.073Z,6.59
2023-01-27T23:53:58.000Z,6.61
2023-01-27T23:56:03.872Z,6.63
2023-01-27T23:58:08.997Z,6.64
